• Join FlightAware (Why Join?)
  • Login
  • US Flag 
02:21AM EDT


 

Airport Tracker/Info


-or-


 

Live Flight TrackerFlight Track Log ✈ SWA1718 ✈ 25-Apr-2013 ✈ KDAL - KAMA

Flight Track Log - Related Links

Times and Time Zones

All times are in EDT time to prevent confusion due to time zone crossing. See the SWA1718 flight status page for this flight to view local times or setup timezone preferences in your user account.

Time Position Orientation Groundspeed Altitude Reporting Facility
EDT Latitude Longitude Course Direction KTS MPH feet Rate Location/Type
03:53PM 32.8167 -96.8167 301° West 187 215 2,400  Level Dallas / Fort Worth TRACON
03:54PM 32.7833 -96.7667 128° Southeast 223 257 5,700 2,820 Climbing Dallas / Fort Worth TRACON
03:55PM 32.7167 -96.7500 168° South 247 284 8,100 1,620 Climbing Dallas / Fort Worth TRACON
03:56PM 32.6500 -96.7667 192° South 301 346 9,000 1,380 Climbing Dallas / Fort Worth TRACON
03:58PM 32.6781 -96.9494 280° West 308 354 12,200 1,920 Climbing Fort Worth Center
03:59PM 33.1133 -97.3765 301° West  Level FlightAware Approximate
03:59PM 32.7242 -97.0356 302° West 318 366 14,700  Level Fort Worth Center
04:00PM 32.7767 -97.1342 302° West 331 381 17,400 1,920 Climbing Fort Worth Center
04:01PM 32.8228 -97.2231 302° West 336 387 18,600 1,860 Climbing Fort Worth Center
04:02PM 32.8772 -97.3269 302° West 342 394 21,100 1,980 Climbing Fort Worth Center
04:03PM 32.9253 -97.4133 304° West 342 394 22,700 1,440 Climbing Fort Worth Center
04:04PM 32.9794 -97.5200 301° West 357 411 24,000 1,320 Climbing Fort Worth Center
04:05PM 33.0378 -97.6314 302° West 363 418 25,400 1,260 Climbing Fort Worth Center
04:06PM 33.0917 -97.7383 301° West 368 423 26,600 1,500 Climbing Fort Worth Center
04:07PM 33.1289 -97.8525 291° West 368 423 28,400 1,620 Climbing Fort Worth Center
04:08PM 33.1642 -97.9644 291° West 368 423 29,900 1,680 Climbing Fort Worth Center
04:09PM 33.1989 -98.0714 291° West 357 411 31,900 1,800 Climbing Fort Worth Center
04:10PM 33.2297 -98.1733 290° West 339 390 33,600 1,020 Climbing Fort Worth Center
04:11PM 33.2708 -98.2756 296° West 333 383 34,000 720 Climbing Fort Worth Center
04:12PM 33.3286 -98.3706 306° West 351 404 35,100 960 Climbing Fort Worth Center
04:13PM 33.3739 -98.4433 307° West 351 404 36,000 420 Climbing Fort Worth Center
04:14PM 33.4417 -98.5586 305° West 357 411 36,000  Level Fort Worth Center
04:15PM 33.5033 -98.6614 306° West 369 425 36,000  Level Fort Worth Center
04:16PM 33.5528 -98.7394 307° West 369 425 36,000  Level Fort Worth Center
04:17PM 33.6181 -98.8578 304° West 381 438 36,000  Level Fort Worth Center
04:18PM 33.6775 -98.9561 306° West 374 430 36,000  Level Fort Worth Center
04:19PM 33.7431 -99.0597 307° West 369 425 36,000  Level Fort Worth Center
04:20PM 33.7981 -99.1581 304° West 355 409 36,000  Level Fort Worth Center
04:21PM 33.8531 -99.2517 305° West 355 409 36,000  Level Fort Worth Center
04:22PM 33.9081 -99.3456 305° West 355 409 36,000  Level Fort Worth Center
04:23PM 33.9628 -99.4394 305° West 355 409 36,000  Level Fort Worth Center
04:24PM 34.0194 -99.5408 304° West 355 409 36,000  Level Fort Worth Center
04:25PM 34.0764 -99.6375 305° West 355 409 36,000  Level Fort Worth Center
04:26PM 34.1350 -99.7369 305° West 355 409 36,000  Level Fort Worth Center
04:27PM 34.1914 -99.8389 304° West 355 409 36,000  Level Fort Worth Center
04:28PM 34.2481 -99.9336 306° West 355 409 36,000 -1,140 Level Fort Worth Center
04:30PM 34.3514 -100.1181 304° West 357 411 32,700 -1,800 Descending Albuquerque Center
04:31PM 34.4092 -100.2167 305° West 357 411 30,600 -2,340 Descending Albuquerque Center
04:32PM 34.4867 -100.3514 305° West 397 457 27,900 -2,460 Descending Albuquerque Center
04:34PM 34.5519 -100.4689 304° West 415 478 25,600 -2,340 Descending Albuquerque Center
04:35PM 34.6150 -100.5797 305° West 407 468 23,100 -2,340 Descending Albuquerque Center
04:36PM 34.6733 -100.6831 304° West 381 438 20,800 -2,280 Descending Albuquerque Center
04:37PM 34.7281 -100.7814 304° West 360 414 18,500 -2,340 Descending Albuquerque Center
04:38PM 34.7919 -100.8931 305° West 340 391 16,000 -2,400 Descending Albuquerque Center
04:39PM 34.8422 -100.9853 304° West 331 381 13,600 -2,340 Descending Albuquerque Center
04:40PM 34.8928 -101.0761 304° West 328 377 11,200 -1,860 Descending Albuquerque Center
04:41PM 34.9431 -101.1664 304° West 324 373 9,800 -1,260 Descending Albuquerque Center
04:42PM 34.9936 -101.2389 310° West 295 339 8,600 -1,440 Descending Albuquerque Center
04:43PM 35.0444 -101.3111 311° West 285 328 6,900 -1,260 Descending Albuquerque Center
04:44PM 35.1042 -101.4047 308° West 288 331 6,000 -480 Descending Albuquerque Center
04:45PM 35.1725 -101.4597 327° Northwest 293 337 6,000  Level Albuquerque Center
04:46PM 35.2353 -101.5042 330° Northwest 277 319 6,000  Level Albuquerque Center
04:47PM 35.2950 -101.5464 330° Northwest 263 303 6,000 -240 Level Albuquerque Center
04:48PM 35.3083 -101.6033 286° West 232 267 5,600 -540 Descending Albuquerque Center
04:49PM 35.2689 -101.6547 227° Southwest 193 222 4,900 -660 Descending Albuquerque Center
04:51PM 35.2167 -101.7000 219° Southwest  Level FlightAware Approximate
04:51PM 35.2189 -101.7150 219° Southwest 141 162 3,600  Level Albuquerque Center